TimeEDT,TemperatureF,Dew PointF,Humidity,Sea Level PressureIn,VisibilityMPH,Wind Direction,Wind SpeedMPH,Gust SpeedMPH,PrecipitationIn,Events,Conditions,WindDirDegrees,DateUTC
12:51 AM,60.1,46.0,60,29.97,10.0,West,10.4,17.3,N/A,,Clear,280,2011-10-21 04:51:00
1:51 AM,60.1,46.0,60,29.98,10.0,WNW,10.4,21.9,N/A,,Clear,290,2011-10-21 05:51:00
2:51 AM,59.0,46.0,62,29.98,10.0,West,12.7,20.7,N/A,,Clear,280,2011-10-21 06:51:00
3:51 AM,59.0,46.9,64,29.99,10.0,West,11.5,20.7,N/A,,Clear,280,2011-10-21 07:51:00
4:51 AM,57.9,46.9,67,30.00,10.0,WNW,10.4,18.4,N/A,,Clear,290,2011-10-21 08:51:00
5:51 AM,57.0,46.0,67,30.01,10.0,WNW,9.2,-,N/A,,Clear,300,2011-10-21 09:51:00
7:51 AM,57.0,44.1,62,30.04,10.0,Variable,3.5,-,N/A,,Clear,0,2011-10-21 11:51:00
8:51 AM,60.1,44.1,55,30.06,10.0,NW,5.8,-,N/A,,Clear,310,2011-10-21 12:51:00
9:51 AM,62.1,43.0,50,30.07,10.0,Variable,5.8,-,N/A,,Clear,0,2011-10-21 13:51:00
10:51 AM,63.0,42.1,46,30.07,10.0,WNW,5.8,-,N/A,,Clear,300,2011-10-21 14:51:00
11:51 AM,64.0,44.1,48,30.08,10.0,Variable,3.5,-,N/A,,Clear,0,2011-10-21 15:51:00
12:51 PM,64.0,44.1,48,30.06,10.0,NW,3.5,-,N/A,,Clear,320,2011-10-21 16:51:00
1:51 PM,64.9,45.0,48,30.05,10.0,Variable,4.6,-,N/A,,Clear,0,2011-10-21 17:51:00
2:51 PM,64.9,46.0,50,30.03,10.0,WNW,4.6,-,N/A,,Clear,290,2011-10-21 18:51:00
3:51 PM,64.0,45.0,50,30.02,10.0,Calm,Calm,-,N/A,,Clear,0,2011-10-21 19:51:00
4:51 PM,64.0,45.0,50,30.03,10.0,SW,4.6,-,N/A,,Clear,220,2011-10-21 20:51:00
5:51 PM,62.1,46.9,58,30.04,10.0,SW,4.6,-,N/A,,Clear,230,2011-10-21 21:51:00
6:51 PM,55.9,46.0,69,30.05,10.0,Calm,Calm,-,N/A,,Clear,0,2011-10-21 22:51:00
7:51 PM,55.0,46.0,72,30.06,10.0,Calm,Calm,-,N/A,,Clear,0,2011-10-21 23:51:00
8:51 PM,53.1,46.0,77,30.07,10.0,Calm,Calm,-,N/A,,Clear,0,2011-10-22 00:51:00
9:51 PM,53.1,46.9,80,30.08,10.0,Calm,Calm,-,N/A,,Clear,0,2011-10-22 01:51:00
10:51 PM,52.0,48.0,86,30.08,10.0,Calm,Calm,-,N/A,,Clear,0,2011-10-22 02:51:00
11:51 PM,52.0,48.0,86,30.07,10.0,Calm,Calm,-,N/A,,Clear,0,2011-10-22 03:51:00